sensor_id;sensor_type;location;lat;lon;timestamp;pressure;altitude;pressure_sealevel;temperature;humidity
60920;BME280;59039;52.108;19.942;2023-02-26T00:00:28;99362.76;;;1.66;76.83
60920;BME280;59039;52.108;19.942;2023-02-26T00:03:01;99365.95;;;1.64;76.59
60920;BME280;59039;52.108;19.942;2023-02-26T00:05:29;99370.85;;;1.60;76.38
60920;BME280;59039;52.108;19.942;2023-02-26T00:07:57;99375.21;;;1.58;76.50
60920;BME280;59039;52.108;19.942;2023-02-26T00:10:22;99377.53;;;1.55;76.80
60920;BME280;59039;52.108;19.942;2023-02-26T00:12:48;99374.96;;;1.54;76.74
60920;BME280;59039;52.108;19.942;2023-02-26T00:15:14;99380.52;;;1.51;76.72
60920;BME280;59039;52.108;19.942;2023-02-26T00:18:01;99381.90;;;1.47;76.49
60920;BME280;59039;52.108;19.942;2023-02-26T00:20:28;99387.44;;;1.45;76.84
60920;BME280;59039;52.108;19.942;2023-02-26T00:22:56;99390.63;;;1.45;77.03
60920;BME280;59039;52.108;19.942;2023-02-26T00:25:21;99399.87;;;1.44;76.92
60920;BME280;59039;52.108;19.942;2023-02-26T00:27:47;99403.93;;;1.42;76.95
60920;BME280;59039;52.108;19.942;2023-02-26T00:30:13;99408.09;;;1.39;76.52
60920;BME280;59039;52.108;19.942;2023-02-26T00:32:42;99409.33;;;1.35;76.55
60920;BME280;59039;52.108;19.942;2023-02-26T00:35:11;99416.10;;;1.33;76.78
60920;BME280;59039;52.108;19.942;2023-02-26T00:38:03;99417.55;;;1.30;76.87
60920;BME280;59039;52.108;19.942;2023-02-26T00:40:42;99422.67;;;1.29;76.77
60920;BME280;59039;52.108;19.942;2023-02-26T00:43:28;99421.19;;;1.27;76.88
60920;BME280;59039;52.108;19.942;2023-02-26T00:51:20;99426.80;;;1.21;77.07
60920;BME280;59039;52.108;19.942;2023-02-26T00:54:12;99434.24;;;1.19;76.81
60920;BME280;59039;52.108;19.942;2023-02-26T00:56:39;99438.11;;;1.18;76.87
60920;BME280;59039;52.108;19.942;2023-02-26T00:59:04;99441.61;;;1.17;76.79
60920;BME280;59039;52.108;19.942;2023-02-26T01:01:30;99441.19;;;1.15;76.99
60920;BME280;59039;52.108;19.942;2023-02-26T01:03:55;99442.77;;;1.16;76.98
60920;BME280;59039;52.108;19.942;2023-02-26T01:06:21;99442.19;;;1.14;76.79
60920;BME280;59039;52.108;19.942;2023-02-26T01:11:25;99445.95;;;1.13;77.14
60920;BME280;59039;52.108;19.942;2023-02-26T01:13:51;99452.30;;;1.12;76.99
60920;BME280;59039;52.108;19.942;2023-02-26T01:16:21;99454.79;;;1.12;77.05
60920;BME280;59039;52.108;19.942;2023-02-26T01:19:17;99456.99;;;1.14;77.23
60920;BME280;59039;52.108;19.942;2023-02-26T01:21:50;99462.20;;;1.13;77.22
60920;BME280;59039;52.108;19.942;2023-02-26T01:24:21;99465.90;;;1.12;76.95
60920;BME280;59039;52.108;19.942;2023-02-26T01:26:54;99468.43;;;1.11;77.07
60920;BME280;59039;52.108;19.942;2023-02-26T01:29:20;99473.80;;;1.11;77.10
60920;BME280;59039;52.108;19.942;2023-02-26T01:31:51;99479.73;;;1.13;77.34
60920;BME280;59039;52.108;19.942;2023-02-26T01:34:31;99486.20;;;1.14;77.42
60920;BME280;59039;52.108;19.942;2023-02-26T01:39:39;99493.73;;;1.16;77.28
60920;BME280;59039;52.108;19.942;2023-02-26T01:42:14;99491.90;;;1.15;76.89
60920;BME280;59039;52.108;19.942;2023-02-26T01:47:21;99498.73;;;1.11;77.02
60920;BME280;59039;52.108;19.942;2023-02-26T01:49:51;99504.37;;;1.13;77.20
60920;BME280;59039;52.108;19.942;2023-02-26T01:55:17;99512.65;;;1.14;77.39
60920;BME280;59039;52.108;19.942;2023-02-26T01:57:43;99515.95;;;1.15;77.42
60920;BME280;59039;52.108;19.942;2023-02-26T02:00:10;99522.31;;;1.16;77.49
60920;BME280;59039;52.108;19.942;2023-02-26T02:02:36;99528.50;;;1.17;77.26
60920;BME280;59039;52.108;19.942;2023-02-26T02:05:11;99532.30;;;1.16;76.99
60920;BME280;59039;52.108;19.942;2023-02-26T02:07:38;99539.34;;;1.15;77.36
60920;BME280;59039;52.108;19.942;2023-02-26T02:10:03;99543.83;;;1.14;77.43
60920;BME280;59039;52.108;19.942;2023-02-26T02:12:56;99543.15;;;1.14;77.38
60920;BME280;59039;52.108;19.942;2023-02-26T02:15:44;99548.79;;;1.15;77.33
60920;BME280;59039;52.108;19.942;2023-02-26T02:18:28;99554.73;;;1.12;77.02
60920;BME280;59039;52.108;19.942;2023-02-26T02:21:14;99559.02;;;1.09;76.81
60920;BME280;59039;52.108;19.942;2023-02-26T02:26:57;99562.22;;;1.10;77.16
60920;BME280;59039;52.108;19.942;2023-02-26T02:29:38;99564.50;;;1.10;77.05
60920;BME280;59039;52.108;19.942;2023-02-26T02:32:11;99568.95;;;1.10;77.18
60920;BME280;59039;52.108;19.942;2023-02-26T02:34:54;99571.04;;;1.11;77.19
60920;BME280;59039;52.108;19.942;2023-02-26T02:37:31;99574.93;;;1.09;76.95
60920;BME280;59039;52.108;19.942;2023-02-26T02:40:08;99581.64;;;1.08;77.10
60920;BME280;59039;52.108;19.942;2023-02-26T02:42:54;99593.39;;;1.08;77.24
60920;BME280;59039;52.108;19.942;2023-02-26T02:45:47;99597.73;;;1.07;77.26
60920;BME280;59039;52.108;19.942;2023-02-26T02:48:21;99599.65;;;1.08;77.48
60920;BME280;59039;52.108;19.942;2023-02-26T02:50:59;99605.14;;;1.08;77.52
60920;BME280;59039;52.108;19.942;2023-02-26T02:54:01;99606.55;;;1.06;77.38
60920;BME280;59039;52.108;19.942;2023-02-26T02:56:36;99609.84;;;1.05;77.12
60920;BME280;59039;52.108;19.942;2023-02-26T02:59:12;99616.23;;;1.06;77.19
60920;BME280;59039;52.108;19.942;2023-02-26T03:01:43;99622.64;;;1.06;77.15
60920;BME280;59039;52.108;19.942;2023-02-26T03:04:14;99627.07;;;1.03;76.64
60920;BME280;59039;52.108;19.942;2023-02-26T03:06:44;99631.29;;;1.02;76.60
60920;BME280;59039;52.108;19.942;2023-02-26T03:09:09;99636.70;;;1.01;76.69
60920;BME280;59039;52.108;19.942;2023-02-26T03:11:36;99641.55;;;1.01;76.65
60920;BME280;59039;52.108;19.942;2023-02-26T03:14:05;99646.75;;;1.00;76.64
60920;BME280;59039;52.108;19.942;2023-02-26T03:19:34;99661.63;;;0.99;76.15
60920;BME280;59039;52.108;19.942;2023-02-26T03:28:38;99676.41;;;0.95;75.61
60920;BME280;59039;52.108;19.942;2023-02-26T03:31:09;99682.05;;;0.93;75.86
60920;BME280;59039;52.108;19.942;2023-02-26T03:33:42;99685.64;;;0.93;76.15
60920;BME280;59039;52.108;19.942;2023-02-26T03:36:34;99689.11;;;0.92;75.64
60920;BME280;59039;52.108;19.942;2023-02-26T03:39:13;99692.92;;;0.91;75.56
60920;BME280;59039;52.108;19.942;2023-02-26T03:44:29;99703.50;;;0.90;76.10
60920;BME280;59039;52.108;19.942;2023-02-26T03:47:01;99707.27;;;0.90;75.83
60920;BME280;59039;52.108;19.942;2023-02-26T03:49:36;99707.98;;;0.88;75.42
60920;BME280;59039;52.108;19.942;2023-02-26T03:52:04;99714.90;;;0.85;75.64
60920;BME280;59039;52.108;19.942;2023-02-26T03:54:59;99718.33;;;0.85;76.06
60920;BME280;59039;52.108;19.942;2023-02-26T03:57:29;99723.24;;;0.83;75.44
60920;BME280;59039;52.108;19.942;2023-02-26T03:59:55;99733.10;;;0.83;75.15
60920;BME280;59039;52.108;19.942;2023-02-26T04:02:26;99734.20;;;0.82;75.44
60920;BME280;59039;52.108;19.942;2023-02-26T04:05:07;99738.21;;;0.81;74.77
60920;BME280;59039;52.108;19.942;2023-02-26T04:07:33;99738.55;;;0.81;75.17
60920;BME280;59039;52.108;19.942;2023-02-26T04:10:04;99737.29;;;0.81;75.57
60920;BME280;59039;52.108;19.942;2023-02-26T04:12:30;99738.19;;;0.81;75.27
60920;BME280;59039;52.108;19.942;2023-02-26T04:15:01;99739.17;;;0.82;75.35
60920;BME280;59039;52.108;19.942;2023-02-26T04:17:36;99745.53;;;0.83;75.36
60920;BME280;59039;52.108;19.942;2023-02-26T04:20:01;99745.67;;;0.84;75.23
60920;BME280;59039;52.108;19.942;2023-02-26T04:22:26;99748.13;;;0.85;75.00
60920;BME280;59039;52.108;19.942;2023-02-26T04:24:52;99749.45;;;0.86;75.34
60920;BME280;59039;52.108;19.942;2023-02-26T04:27:26;99758.52;;;0.87;75.67
60920;BME280;59039;52.108;19.942;2023-02-26T04:29:51;99763.84;;;0.87;75.34
60920;BME280;59039;52.108;19.942;2023-02-26T04:32:17;99768.27;;;0.88;75.24
60920;BME280;59039;52.108;19.942;2023-02-26T04:34:42;99773.66;;;0.87;75.38
60920;BME280;59039;52.108;19.942;2023-02-26T04:37:08;99775.64;;;0.87;75.34
60920;BME280;59039;52.108;19.942;2023-02-26T04:39:33;99782.41;;;0.87;75.59
60920;BME280;59039;52.108;19.942;2023-02-26T04:41:59;99786.26;;;0.88;75.63
60920;BME280;59039;52.108;19.942;2023-02-26T04:44:24;99790.95;;;0.87;75.46
60920;BME280;59039;52.108;19.942;2023-02-26T04:46:52;99791.90;;;0.89;75.58
60920;BME280;59039;52.108;19.942;2023-02-26T04:49:18;99798.61;;;0.89;75.91
60920;BME280;59039;52.108;19.942;2023-02-26T04:51:43;99800.52;;;0.90;75.91
60920;BME280;59039;52.108;19.942;2023-02-26T04:54:09;99798.33;;;0.91;75.84
60920;BME280;59039;52.108;19.942;2023-02-26T04:56:34;99802.92;;;0.92;75.84
60920;BME280;59039;52.108;19.942;2023-02-26T04:59:00;99802.80;;;0.91;75.67
60920;BME280;59039;52.108;19.942;2023-02-26T05:01:31;99806.09;;;0.90;75.54
60920;BME280;59039;52.108;19.942;2023-02-26T05:04:05;99810.20;;;0.87;75.60
60920;BME280;59039;52.108;19.942;2023-02-26T05:06:36;99812.98;;;0.88;75.97
60920;BME280;59039;52.108;19.942;2023-02-26T05:09:02;99815.42;;;0.89;76.01
60920;BME280;59039;52.108;19.942;2023-02-26T05:11:37;99822.80;;;0.91;76.18
60920;BME280;59039;52.108;19.942;2023-02-26T05:14:03;99824.18;;;0.91;76.30
60920;BME280;59039;52.108;19.942;2023-02-26T05:16:33;99830.20;;;0.92;76.33
60920;BME280;59039;52.108;19.942;2023-02-26T05:19:02;99833.30;;;0.94;76.30
60920;BME280;59039;52.108;19.942;2023-02-26T05:21:30;99840.50;;;0.95;76.37
60920;BME280;59039;52.108;19.942;2023-02-26T05:24:02;99843.09;;;0.96;76.39
60920;BME280;59039;52.108;19.942;2023-02-26T05:26:28;99847.58;;;0.96;76.32
60920;BME280;59039;52.108;19.942;2023-02-26T05:28:56;99852.25;;;0.95;76.15
60920;BME280;59039;52.108;19.942;2023-02-26T05:31:22;99859.09;;;0.94;75.69
60920;BME280;59039;52.108;19.942;2023-02-26T05:33:50;99865.81;;;0.93;75.25
60920;BME280;59039;52.108;19.942;2023-02-26T05:36:15;99875.31;;;0.90;75.45
60920;BME280;59039;52.108;19.942;2023-02-26T05:38:41;99887.03;;;0.88;75.69
60920;BME280;59039;52.108;19.942;2023-02-26T05:43:47;99900.02;;;0.83;73.04
60920;BME280;59039;52.108;19.942;2023-02-26T05:46:13;99908.47;;;0.79;70.63
60920;BME280;59039;52.108;19.942;2023-02-26T05:48:41;99907.35;;;0.77;71.84
60920;BME280;59039;52.108;19.942;2023-02-26T05:51:36;99910.63;;;0.76;71.73
60920;BME280;59039;52.108;19.942;2023-02-26T05:56:55;99922.02;;;0.74;70.23
60920;BME280;59039;52.108;19.942;2023-02-26T05:59:24;99930.21;;;0.74;70.26
60920;BME280;59039;52.108;19.942;2023-02-26T06:01:49;99931.98;;;0.72;69.07
60920;BME280;59039;52.108;19.942;2023-02-26T06:04:15;99936.58;;;0.70;69.03
60920;BME280;59039;52.108;19.942;2023-02-26T06:06:41;99944.30;;;0.69;69.99
60920;BME280;59039;52.108;19.942;2023-02-26T06:09:09;99950.74;;;0.69;68.97
60920;BME280;59039;52.108;19.942;2023-02-26T06:11:40;99954.02;;;0.68;69.08
60920;BME280;59039;52.108;19.942;2023-02-26T06:14:11;99957.89;;;0.68;69.90
60920;BME280;59039;52.108;19.942;2023-02-26T06:16:36;99962.86;;;0.69;69.34
60920;BME280;59039;52.108;19.942;2023-02-26T06:21:49;99972.90;;;0.68;67.54
60920;BME280;59039;52.108;19.942;2023-02-26T06:24:17;99977.16;;;0.68;68.68
60920;BME280;59039;52.108;19.942;2023-02-26T06:26:48;99978.05;;;0.68;68.31
60920;BME280;59039;52.108;19.942;2023-02-26T06:29:30;99986.90;;;0.69;68.27
60920;BME280;59039;52.108;19.942;2023-02-26T06:31:55;99988.16;;;0.69;67.79
60920;BME280;59039;52.108;19.942;2023-02-26T06:34:21;99993.70;;;0.69;67.66
60920;BME280;59039;52.108;19.942;2023-02-26T06:36:46;100003.87;;;0.69;68.36
60920;BME280;59039;52.108;19.942;2023-02-26T06:39:15;100003.36;;;0.71;68.66
60920;BME280;59039;52.108;19.942;2023-02-26T06:41:40;100008.48;;;0.72;68.15
60920;BME280;59039;52.108;19.942;2023-02-26T06:44:06;100010.67;;;0.74;68.76
60920;BME280;59039;52.108;19.942;2023-02-26T06:46:35;100014.50;;;0.75;68.58
60920;BME280;59039;52.108;19.942;2023-02-26T06:49:03;100018.17;;;0.76;68.70
60920;BME280;59039;52.108;19.942;2023-02-26T06:51:32;100021.87;;;0.77;68.00
60920;BME280;59039;52.108;19.942;2023-02-26T06:54:11;100028.53;;;0.79;67.60
60920;BME280;59039;52.108;19.942;2023-02-26T06:56:44;100030.59;;;0.80;67.52
60920;BME280;59039;52.108;19.942;2023-02-26T06:59:23;100034.16;;;0.80;67.56
60920;BME280;59039;52.108;19.942;2023-02-26T07:01:48;100038.23;;;0.80;67.31
60920;BME280;59039;52.108;19.942;2023-02-26T07:04:14;100043.54;;;0.81;67.33
60920;BME280;59039;52.108;19.942;2023-02-26T07:06:59;100050.93;;;0.82;67.53
60920;BME280;59039;52.108;19.942;2023-02-26T07:09:24;100054.02;;;0.81;66.38
60920;BME280;59039;52.108;19.942;2023-02-26T07:11:50;100059.99;;;0.80;66.22
60920;BME280;59039;52.108;19.942;2023-02-26T07:14:15;100057.37;;;0.79;66.22
60920;BME280;59039;52.108;19.942;2023-02-26T07:16:43;100064.14;;;0.79;65.81
60920;BME280;59039;52.108;19.942;2023-02-26T07:19:13;100069.54;;;0.79;65.16
60920;BME280;59039;52.108;19.942;2023-02-26T07:21:50;100072.34;;;0.77;65.19
60920;BME280;59039;52.108;19.942;2023-02-26T07:24:16;100076.11;;;0.76;65.90
60920;BME280;59039;52.108;19.942;2023-02-26T07:26:46;100075.05;;;0.76;66.05
60920;BME280;59039;52.108;19.942;2023-02-26T07:29:15;100083.23;;;0.77;64.90
60920;BME280;59039;52.108;19.942;2023-02-26T07:31:40;100082.22;;;0.73;63.36
60920;BME280;59039;52.108;19.942;2023-02-26T07:34:11;100090.75;;;0.74;64.89
60920;BME280;59039;52.108;19.942;2023-02-26T07:36:36;100092.98;;;0.75;65.25
60920;BME280;59039;52.108;19.942;2023-02-26T07:39:02;100095.36;;;0.77;66.12
60920;BME280;59039;52.108;19.942;2023-02-26T07:41:27;100105.15;;;0.80;65.49
60920;BME280;59039;52.108;19.942;2023-02-26T07:43:53;100109.95;;;0.80;64.41
60920;BME280;59039;52.108;19.942;2023-02-26T07:46:18;100115.32;;;0.80;64.12
60920;BME280;59039;52.108;19.942;2023-02-26T07:48:44;100120.23;;;0.81;65.69
60920;BME280;59039;52.108;19.942;2023-02-26T07:51:12;100127.35;;;0.81;64.65
60920;BME280;59039;52.108;19.942;2023-02-26T07:53:37;100128.60;;;0.81;64.40
60920;BME280;59039;52.108;19.942;2023-02-26T07:56:03;100133.05;;;0.81;64.60
60920;BME280;59039;52.108;19.942;2023-02-26T07:58:28;100134.27;;;0.82;64.66
60920;BME280;59039;52.108;19.942;2023-02-26T08:00:53;100138.88;;;0.82;65.46
60920;BME280;59039;52.108;19.942;2023-02-26T08:03:19;100140.13;;;0.85;66.07
60920;BME280;59039;52.108;19.942;2023-02-26T08:05:45;100145.48;;;0.88;65.83
60920;BME280;59039;52.108;19.942;2023-02-26T08:08:11;100150.61;;;0.91;65.80
60920;BME280;59039;52.108;19.942;2023-02-26T08:10:46;100159.41;;;0.93;66.03
60920;BME280;59039;52.108;19.942;2023-02-26T08:13:12;100160.89;;;0.95;65.95
60920;BME280;59039;52.108;19.942;2023-02-26T08:15:37;100167.64;;;0.98;66.37
60920;BME280;59039;52.108;19.942;2023-02-26T08:18:05;100170.52;;;1.00;65.77
60920;BME280;59039;52.108;19.942;2023-02-26T08:20:39;100175.84;;;1.01;65.60
60920;BME280;59039;52.108;19.942;2023-02-26T08:23:07;100179.23;;;1.01;64.91
60920;BME280;59039;52.108;19.942;2023-02-26T08:25:33;100181.82;;;1.02;66.02
60920;BME280;59039;52.108;19.942;2023-02-26T08:28:01;100188.43;;;1.02;64.97
60920;BME280;59039;52.108;19.942;2023-02-26T08:30:29;100189.81;;;1.03;66.38
60920;BME280;59039;52.108;19.942;2023-02-26T08:32:54;100192.38;;;1.04;65.56
60920;BME280;59039;52.108;19.942;2023-02-26T08:35:20;100196.15;;;1.07;66.06
60920;BME280;59039;52.108;19.942;2023-02-26T08:37:45;100196.20;;;1.09;66.42
60920;BME280;59039;52.108;19.942;2023-02-26T08:40:11;100200.98;;;1.12;66.92
60920;BME280;59039;52.108;19.942;2023-02-26T08:42:36;100204.49;;;1.16;67.06
60920;BME280;59039;52.108;19.942;2023-02-26T08:45:05;100208.43;;;1.18;66.66
60920;BME280;59039;52.108;19.942;2023-02-26T08:47:31;100212.54;;;1.18;65.78
60920;BME280;59039;52.108;19.942;2023-02-26T08:49:57;100219.46;;;1.19;66.41
60920;BME280;59039;52.108;19.942;2023-02-26T08:52:22;100225.10;;;1.20;66.72
60920;BME280;59039;52.108;19.942;2023-02-26T08:54:48;100226.55;;;1.22;67.04
60920;BME280;59039;52.108;19.942;2023-02-26T08:57:18;100228.55;;;1.24;66.90
60920;BME280;59039;52.108;19.942;2023-02-26T08:59:44;100230.61;;;1.29;67.53
60920;BME280;59039;52.108;19.942;2023-02-26T09:02:11;100230.41;;;1.32;67.29
60920;BME280;59039;52.108;19.942;2023-02-26T09:04:36;100234.14;;;1.35;67.50
60920;BME280;59039;52.108;19.942;2023-02-26T09:07:01;100241.73;;;1.38;67.53
60920;BME280;59039;52.108;19.942;2023-02-26T09:09:30;100245.09;;;1.42;66.79
60920;BME280;59039;52.108;19.942;2023-02-26T09:11:55;100254.30;;;1.46;66.81
60920;BME280;59039;52.108;19.942;2023-02-26T09:14:21;100261.14;;;1.50;67.14
60920;BME280;59039;52.108;19.942;2023-02-26T09:16:47;100265.35;;;1.54;66.73
60920;BME280;59039;52.108;19.942;2023-02-26T09:19:25;100264.07;;;1.57;65.35
60920;BME280;59039;52.108;19.942;2023-02-26T09:21:51;100266.23;;;1.60;64.60
60920;BME280;59039;52.108;19.942;2023-02-26T09:24:19;100268.68;;;1.63;65.70
60920;BME280;59039;52.108;19.942;2023-02-26T09:26:47;100270.73;;;1.67;64.51
60920;BME280;59039;52.108;19.942;2023-02-26T09:29:12;100276.67;;;1.72;64.85
60920;BME280;59039;52.108;19.942;2023-02-26T09:31:40;100274.66;;;1.76;62.56
60920;BME280;59039;52.108;19.942;2023-02-26T09:34:06;100280.11;;;1.79;63.22
60920;BME280;59039;52.108;19.942;2023-02-26T09:36:44;100285.95;;;1.85;64.92
60920;BME280;59039;52.108;19.942;2023-02-26T09:39:09;100291.80;;;1.92;63.59
60920;BME280;59039;52.108;19.942;2023-02-26T09:41:43;100294.80;;;1.95;62.84
60920;BME280;59039;52.108;19.942;2023-02-26T09:47:11;100308.58;;;2.03;63.09
60920;BME280;59039;52.108;19.942;2023-02-26T09:50:02;100310.63;;;2.07;63.41
60920;BME280;59039;52.108;19.942;2023-02-26T09:52:59;100313.23;;;2.11;62.68
60920;BME280;59039;52.108;19.942;2023-02-26T09:58:30;100322.55;;;2.18;63.19
60920;BME280;59039;52.108;19.942;2023-02-26T10:04:14;100330.02;;;2.21;62.99
60920;BME280;59039;52.108;19.942;2023-02-26T10:12:55;100353.95;;;2.24;62.80
60920;BME280;59039;52.108;19.942;2023-02-26T10:15:24;100359.14;;;2.25;61.12
60920;BME280;59039;52.108;19.942;2023-02-26T10:21:02;100370.75;;;2.22;61.01
60920;BME280;59039;52.108;19.942;2023-02-26T10:23:39;100373.94;;;2.20;58.97
60920;BME280;59039;52.108;19.942;2023-02-26T10:29:06;100380.19;;;2.14;59.38
60920;BME280;59039;52.108;19.942;2023-02-26T10:34:30;100386.65;;;2.14;60.78
60920;BME280;59039;52.108;19.942;2023-02-26T10:37:03;100394.48;;;2.17;61.72
60920;BME280;59039;52.108;19.942;2023-02-26T10:42:35;100404.34;;;2.17;59.21
60920;BME280;59039;52.108;19.942;2023-02-26T10:47:45;100410.45;;;2.14;57.80
60920;BME280;59039;52.108;19.942;2023-02-26T10:50:15;100415.86;;;2.13;61.39
60920;BME280;59039;52.108;19.942;2023-02-26T10:53:02;100416.73;;;2.13;60.43
60920;BME280;59039;52.108;19.942;2023-02-26T10:56:05;100414.11;;;2.15;60.75
60920;BME280;59039;52.108;19.942;2023-02-26T10:58:32;100419.85;;;2.17;60.57
60920;BME280;59039;52.108;19.942;2023-02-26T11:00:58;100422.03;;;2.19;61.34
60920;BME280;59039;52.108;19.942;2023-02-26T11:05:51;100426.50;;;2.25;61.42
60920;BME280;59039;52.108;19.942;2023-02-26T11:08:25;100433.76;;;2.28;62.71
60920;BME280;59039;52.108;19.942;2023-02-26T11:10:55;100435.14;;;2.32;63.14
60920;BME280;59039;52.108;19.942;2023-02-26T11:13:22;100435.62;;;2.36;62.96
60920;BME280;59039;52.108;19.942;2023-02-26T11:15:50;100441.96;;;2.37;61.45
60920;BME280;59039;52.108;19.942;2023-02-26T11:21:02;100444.45;;;2.37;61.24
60920;BME280;59039;52.108;19.942;2023-02-26T11:23:30;100447.39;;;2.36;60.14
60920;BME280;59039;52.108;19.942;2023-02-26T11:26:03;100448.02;;;2.35;61.43
60920;BME280;59039;52.108;19.942;2023-02-26T11:28:36;100452.41;;;2.33;59.07
60920;BME280;59039;52.108;19.942;2023-02-26T11:31:08;100454.64;;;2.32;59.51
60920;BME280;59039;52.108;19.942;2023-02-26T11:33:38;100453.05;;;2.32;61.21
60920;BME280;59039;52.108;19.942;2023-02-26T11:36:11;100455.23;;;2.34;60.68
60920;BME280;59039;52.108;19.942;2023-02-26T11:38:38;100459.98;;;2.35;59.50
60920;BME280;59039;52.108;19.942;2023-02-26T11:41:04;100460.81;;;2.33;58.19
60920;BME280;59039;52.108;19.942;2023-02-26T11:43:42;100461.73;;;2.33;59.50
60920;BME280;59039;52.108;19.942;2023-02-26T11:46:08;100465.61;;;2.34;60.04
60920;BME280;59039;52.108;19.942;2023-02-26T11:49:01;100467.06;;;2.34;58.16
60920;BME280;59039;52.108;19.942;2023-02-26T11:51:27;100473.14;;;2.34;59.22
60920;BME280;59039;52.108;19.942;2023-02-26T11:54:00;100482.11;;;2.36;59.88
60920;BME280;59039;52.108;19.942;2023-02-26T11:59:05;100492.34;;;2.41;58.51
60920;BME280;59039;52.108;19.942;2023-02-26T12:01:31;100493.09;;;2.43;59.08
60920;BME280;59039;52.108;19.942;2023-02-26T12:04:00;100500.40;;;2.45;58.64
60920;BME280;59039;52.108;19.942;2023-02-26T12:06:26;100498.33;;;2.47;58.59
60920;BME280;59039;52.108;19.942;2023-02-26T12:08:54;100500.23;;;2.48;59.46
60920;BME280;59039;52.108;19.942;2023-02-26T12:38:48;100523.73;;;2.74;60.58
60920;BME280;59039;52.108;19.942;2023-02-26T12:44:11;100527.13;;;2.77;60.04
60920;BME280;59039;52.108;19.942;2023-02-26T12:46:58;100524.72;;;2.78;59.39
60920;BME280;59039;52.108;19.942;2023-02-26T12:49:50;100529.11;;;2.80;59.98
60920;BME280;59039;52.108;19.942;2023-02-26T13:08:34;100537.83;;;2.83;61.75
60920;BME280;59039;52.108;19.942;2023-02-26T13:17:26;100538.34;;;2.83;61.30
60920;BME280;59039;52.108;19.942;2023-02-26T13:26:09;100544.39;;;2.84;61.82
60920;BME280;59039;52.108;19.942;2023-02-26T13:31:24;100544.54;;;2.84;61.54
60920;BME280;59039;52.108;19.942;2023-02-26T13:33:52;100544.59;;;2.84;61.31
60920;BME280;59039;52.108;19.942;2023-02-26T13:36:26;100547.34;;;2.85;61.75
60920;BME280;59039;52.108;19.942;2023-02-26T13:39:09;100553.54;;;2.86;61.43
60920;BME280;59039;52.108;19.942;2023-02-26T13:47:19;100556.38;;;2.87;61.68
60920;BME280;59039;52.108;19.942;2023-02-26T13:52:49;100559.08;;;2.87;61.85
60920;BME280;59039;52.108;19.942;2023-02-26T13:55:44;100563.47;;;2.88;62.49
60920;BME280;59039;52.108;19.942;2023-02-26T14:01:26;100568.58;;;2.94;62.29
60920;BME280;59039;52.108;19.942;2023-02-26T14:04:21;100572.92;;;2.96;61.78
60920;BME280;59039;52.108;19.942;2023-02-26T14:06:51;100573.25;;;2.99;61.50
60920;BME280;59039;52.108;19.942;2023-02-26T14:14:41;100575.13;;;3.06;61.29
60920;BME280;59039;52.108;19.942;2023-02-26T14:25:17;100593.00;;;3.12;60.73
60920;BME280;59039;52.108;19.942;2023-02-26T14:27:46;100597.66;;;3.14;60.31
60920;BME280;59039;52.108;19.942;2023-02-26T14:30:27;100598.73;;;3.15;57.65
60920;BME280;59039;52.108;19.942;2023-02-26T14:35:27;100609.88;;;3.14;57.96
60920;BME280;59039;52.108;19.942;2023-02-26T14:38:41;100609.57;;;3.13;56.63
60920;BME280;59039;52.108;19.942;2023-02-26T14:40:50;100611.48;;;3.11;57.18
60920;BME280;59039;52.108;19.942;2023-02-26T14:43:22;100615.21;;;3.12;58.74
60920;BME280;59039;52.108;19.942;2023-02-26T14:45:54;100617.74;;;3.11;57.91
60920;BME280;59039;52.108;19.942;2023-02-26T14:48:21;100620.23;;;3.11;57.62
60920;BME280;59039;52.108;19.942;2023-02-26T14:56:20;100628.45;;;3.09;58.35
60920;BME280;59039;52.108;19.942;2023-02-26T14:58:58;100634.52;;;3.10;58.50
60920;BME280;59039;52.108;19.942;2023-02-26T15:01:43;100636.65;;;3.10;59.25
60920;BME280;59039;52.108;19.942;2023-02-26T15:07:29;100645.65;;;3.09;58.67
60920;BME280;59039;52.108;19.942;2023-02-26T15:10:23;100650.14;;;3.09;59.26
60920;BME280;59039;52.108;19.942;2023-02-26T15:18:54;100657.81;;;3.12;60.87
60920;BME280;59039;52.108;19.942;2023-02-26T15:24:10;100665.97;;;3.08;61.17
60920;BME280;59039;52.108;19.942;2023-02-26T15:26:44;100669.14;;;3.06;61.71
60920;BME280;59039;52.108;19.942;2023-02-26T15:29:23;100671.17;;;3.05;62.08
60920;BME280;59039;52.108;19.942;2023-02-26T15:31:54;100672.25;;;3.05;62.29
60920;BME280;59039;52.108;19.942;2023-02-26T15:34:20;100678.38;;;3.01;61.87
60920;BME280;59039;52.108;19.942;2023-02-26T15:36:49;100685.10;;;3.00;61.54
60920;BME280;59039;52.108;19.942;2023-02-26T15:39:16;100689.14;;;2.98;61.22
60920;BME280;59039;52.108;19.942;2023-02-26T15:41:44;100692.39;;;2.98;61.90
60920;BME280;59039;52.108;19.942;2023-02-26T15:44:23;100697.86;;;2.99;62.35
60920;BME280;59039;52.108;19.942;2023-02-26T15:46:55;100698.52;;;3.00;62.44
60920;BME280;59039;52.108;19.942;2023-02-26T15:51:51;100708.51;;;3.00;62.89
60920;BME280;59039;52.108;19.942;2023-02-26T15:54:19;100713.03;;;3.00;63.02
60920;BME280;59039;52.108;19.942;2023-02-26T15:56:49;100713.92;;;3.00;62.95
60920;BME280;59039;52.108;19.942;2023-02-26T15:59:19;100716.63;;;2.99;63.08
60920;BME280;59039;52.108;19.942;2023-02-26T16:01:47;100722.87;;;3.00;63.16
60920;BME280;59039;52.108;19.942;2023-02-26T16:04:18;100723.83;;;2.99;62.93
60920;BME280;59039;52.108;19.942;2023-02-26T16:06:48;100726.96;;;2.97;62.62
60920;BME280;59039;52.108;19.942;2023-02-26T16:09:19;100730.98;;;2.93;62.19
60920;BME280;59039;52.108;19.942;2023-02-26T16:11:49;100736.21;;;2.87;61.77
60920;BME280;59039;52.108;19.942;2023-02-26T16:14:32;100741.23;;;2.81;61.40
60920;BME280;59039;52.108;19.942;2023-02-26T16:17:00;100746.17;;;2.77;61.23
60920;BME280;59039;52.108;19.942;2023-02-26T16:21:58;100755.14;;;2.70;60.65
60920;BME280;59039;52.108;19.942;2023-02-26T16:24:26;100763.64;;;2.69;60.39